Time;durP1;ratioP1;P1;durP2;ratioP2;P2;SDS_P1;SDS_P2;PMS_P1;PMS_P2;Temp;Humidity;BMP_temperature;BMP_pressure;BME280_temperature;BME280_humidity;BME280_pressure;Samples;Min_cycle;Max_cycle;Signal;HPM_P1;HPM_P2
2022/01/26 00:06:47;;;;;;;102.22;44.33;;;;;;;-5.96;75.96;98646.78;1783569;80;20988;-76
2022/01/26 00:09:14;;;;;;;98.05;44.38;;;;;;;-6.03;76.26;98644.77;1783708;80;21067;-76
2022/01/26 00:11:41;;;;;;;105.22;46.55;;;;;;;-6.05;76.52;98639.92;1783552;80;21638;-76
2022/01/26 00:14:12;;;;;;;95.28;41.75;;;;;;;-6.06;77.44;98631.31;1783388;80;20996;-77
2022/01/26 00:16:41;;;;;;;99.32;41.75;;;;;;;-6.18;76.99;98635.49;1783173;80;21401;-76
2022/01/26 00:19:15;;;;;;;94.80;41.77;;;;;;;-6.16;77.11;98649.73;1762662;81;21001;-76
2022/01/26 00:21:47;;;;;;;94.85;41.65;;;;;;;-6.18;76.75;98640.66;1762415;81;21426;-76
2022/01/26 00:29:31;;;;;;;96.57;40.15;;;;;;;-6.26;76.85;98623.52;1754557;81;21025;-76
2022/01/26 00:40:38;;;;;;;98.85;39.92;;;;;;;-6.24;76.88;98620.59;1775164;81;21040;-76
2022/01/26 00:43:25;;;;;;;88.95;39.95;;;;;;;-6.26;76.53;98626.49;1774800;80;20978;-76
2022/01/26 00:45:55;;;;;;;93.50;39.23;;;;;;;-6.30;77.06;98624.18;1755638;80;21395;-76
2022/01/26 00:48:20;;;;;;;100.90;43.70;;;;;;;-6.30;77.17;98621.60;1772085;81;21017;-75
2022/01/26 00:50:51;;;;;;;98.00;40.90;;;;;;;-6.28;77.96;98616.48;1775183;80;20984;-76
2022/01/26 00:53:17;;;;;;;94.20;41.02;;;;;;;-6.30;78.24;98606.52;1774494;80;21089;-76
2022/01/26 00:55:44;;;;;;;94.72;41.48;;;;;;;-6.33;77.09;98608.55;1774810;80;20968;-76
2022/01/26 00:58:10;;;;;;;94.15;44.53;;;;;;;-6.34;77.24;98605.49;1775052;81;21043;-76
2022/01/26 01:00:37;;;;;;;89.60;41.95;;;;;;;-6.33;77.78;98590.48;1775036;81;21461;-76
2022/01/26 01:03:03;;;;;;;90.42;41.53;;;;;;;-6.29;77.46;98596.28;1774995;81;21040;-76
2022/01/26 01:05:38;;;;;;;101.05;43.95;;;;;;;-6.28;77.41;98592.88;1754594;81;21017;-76
2022/01/26 01:08:09;;;;;;;94.30;43.10;;;;;;;-6.28;78.02;98598.03;1748941;81;21068;-75
2022/01/26 01:10:30;;;;;;;96.20;41.60;;;;;;;-6.24;78.01;98602.53;1748433;81;21442;-75
2022/01/26 01:12:58;;;;;;;105.92;42.80;;;;;;;-6.20;77.67;98607.85;1749199;82;21060;-75
2022/01/26 01:15:28;;;;;;;100.65;44.75;;;;;;;-6.25;77.49;98600.77;1749189;82;21025;-75
2022/01/26 01:18:08;;;;;;;99.70;44.42;;;;;;;-6.25;77.78;98601.17;1749135;82;21029;-76
2022/01/26 01:20:49;;;;;;;99.17;43.15;;;;;;;-6.24;77.54;98600.34;1770265;81;21442;-76
2022/01/26 01:23:37;;;;;;;94.00;44.48;;;;;;;-6.24;77.80;98599.95;1772404;80;20950;-76
2022/01/26 01:26:39;;;;;;;94.45;43.30;;;;;;;-6.24;78.07;98603.83;1771976;81;21496;-76
2022/01/26 01:29:19;;;;;;;99.42;42.55;;;;;;;-6.18;78.50;98599.77;1752203;81;20988;-76
2022/01/26 01:30:56;;;;;;;105.27;48.60;;;;;;;-6.20;78.10;98602.27;1748031;81;20977;-76
2022/01/26 01:33:22;;;;;;;100.20;45.35;;;;;;;-6.19;77.63;98603.16;1772646;80;20973;-76
2022/01/26 01:35:48;;;;;;;105.35;44.50;;;;;;;-6.24;77.45;98601.24;1775063;81;21040;-76
2022/01/26 01:38:18;;;;;;;102.00;46.15;;;;;;;-6.25;77.40;98601.17;1774929;81;21031;-76
2022/01/26 01:40:48;;;;;;;96.08;43.78;;;;;;;-6.24;77.48;98599.95;1750191;81;20982;-76
2022/01/26 01:43:18;;;;;;;94.58;41.65;;;;;;;-6.28;77.29;98607.45;1738749;82;21016;-76
2022/01/26 01:45:50;;;;;;;103.65;45.75;;;;;;;-6.33;77.34;98600.81;1738271;81;21023;-76
2022/01/26 01:48:22;;;;;;;104.15;43.78;;;;;;;-6.36;77.38;98599.36;1739736;81;21012;-76
2022/01/26 01:50:51;;;;;;;99.05;43.52;;;;;;;-6.37;77.72;98595.02;1739487;81;21058;-76
2022/01/26 01:53:19;;;;;;;101.72;44.05;;;;;;;-6.36;77.61;98594.20;1749201;81;20946;-76
2022/01/26 01:55:50;;;;;;;108.42;45.33;;;;;;;-6.37;77.61;98600.18;1749270;81;21025;-76
2022/01/26 01:58:19;;;;;;;98.95;44.90;;;;;;;-6.35;78.43;98592.13;1749405;82;20985;-76
2022/01/26 02:00:46;;;;;;;102.10;42.93;;;;;;;-6.31;77.75;98594.02;1749333;81;21001;-76
2022/01/26 02:03:13;;;;;;;103.72;44.80;;;;;;;-6.33;77.83;98595.65;1749261;82;20973;-76
2022/01/26 02:05:39;;;;;;;98.55;45.38;;;;;;;-6.34;77.55;98597.76;1749319;81;21049;-76
2022/01/26 02:08:06;;;;;;;102.72;46.95;;;;;;;-6.32;77.96;98594.83;1739629;81;21068;-76
2022/01/26 02:10:33;;;;;;;103.45;44.88;;;;;;;-6.31;77.70;98592.72;1748647;81;21064;-76
2022/01/26 02:13:07;;;;;;;106.52;43.10;;;;;;;-6.30;77.75;98595.80;1748579;81;20977;-76
2022/01/26 02:15:40;;;;;;;104.65;45.05;;;;;;;-6.31;77.89;98595.73;1749233;81;21029;-76
2022/01/26 02:20:54;;;;;;;102.95;45.20;;;;;;;-6.26;78.23;98598.12;1699643;81;21053;-77
2022/01/26 02:53:05;;;;;;;104.20;42.75;;;;;;;-6.29;78.12;98599.25;1749381;82;21040;-76
2022/01/26 02:55:35;;;;;;;99.62;44.45;;;;;;;-6.29;78.30;98596.67;1757170;81;21011;-76
2022/01/26 03:00:55;;;;;;;108.07;45.45;;;;;;;-6.29;78.52;98591.51;1775279;81;20991;-77
2022/01/26 03:03:25;;;;;;;105.63;45.52;;;;;;;-6.29;78.84;98596.67;1772829;80;21078;-76
2022/01/26 03:05:54;;;;;;;105.85;43.23;;;;;;;-6.29;78.73;98599.25;1774627;81;20992;-76
2022/01/26 03:08:18;;;;;;;100.85;42.23;;;;;;;-6.28;78.79;98591.59;1774343;80;21032;-76
2022/01/26 03:10:52;;;;;;;98.55;44.55;;;;;;;-6.31;78.68;98593.15;1775144;80;21016;-76
2022/01/26 03:13:21;;;;;;;99.60;46.08;;;;;;;-6.32;78.77;98590.96;1762103;80;20981;-76
2022/01/26 03:15:49;;;;;;;100.18;45.98;;;;;;;-6.35;78.73;98585.68;1748924;81;21403;-76
2022/01/26 03:20:59;;;;;;;;;;;;;;;-6.32;78.84;98582.36;1752088;81;21024;-76
2022/01/26 03:34:08;;;;;;;98.67;42.70;;;;;;;-6.38;79.31;98577.78;1772355;80;21087;-76
2022/01/26 03:36:37;;;;;;;98.47;44.60;;;;;;;-6.28;79.81;98577.80;1762092;81;21363;-76
2022/01/26 03:39:05;;;;;;;95.75;41.15;;;;;;;-6.24;79.59;98573.26;1762163;81;21017;-76
2022/01/26 03:41:38;;;;;;;104.80;45.03;;;;;;;-6.21;79.28;98574.70;1762245;81;21009;-76
2022/01/26 03:43:57;;;;;;;92.22;41.90;;;;;;;-6.15;79.50;98573.69;1776378;80;21035;-76
2022/01/26 03:46:24;;;;;;;94.72;43.28;;;;;;;-6.13;79.33;98578.92;1770778;80;21020;-76
2022/01/26 03:48:51;;;;;;;95.40;42.45;;;;;;;-6.07;79.18;98576.62;1762810;81;21099;-77
2022/01/26 03:51:18;;;;;;;95.60;42.48;;;;;;;-6.05;78.91;98574.12;1762639;81;21013;-78
2022/01/26 03:53:45;;;;;;;96.80;42.80;;;;;;;-6.04;79.01;98570.32;1762950;81;21028;-78
2022/01/26 03:56:11;;;;;;;100.50;44.03;;;;;;;-6.03;78.94;98569.92;1762725;81;21107;-78
2022/01/26 03:58:38;;;;;;;99.70;42.75;;;;;;;-6.02;79.11;98563.91;1777644;80;20984;-78
2022/01/26 04:01:04;;;;;;;104.00;43.25;;;;;;;-5.99;78.80;98564.92;1764379;80;20996;-78
2022/01/26 04:03:31;;;;;;;92.20;41.55;;;;;;;-6.02;78.62;98571.66;1762724;81;21024;-78
2022/01/26 04:05:57;;;;;;;96.70;44.38;;;;;;;-6.03;79.14;98568.21;1762644;81;20961;-76
2022/01/26 04:08:28;;;;;;;86.30;40.35;;;;;;;-5.96;79.27;98561.20;1762843;81;20988;-77
2022/01/26 04:13:37;;;;;;;95.92;42.27;;;;;;;-5.86;79.21;98566.36;1762809;80;20993;-77
2022/01/26 04:16:06;;;;;;;103.15;44.23;;;;;;;-5.80;79.60;98563.19;1783550;80;21012;-77
2022/01/26 04:18:36;;;;;;;97.22;43.58;;;;;;;-5.74;79.14;98567.72;1779039;80;21425;-77
2022/01/26 04:21:13;;;;;;;96.70;43.65;;;;;;;-5.73;78.85;98556.59;1753512;81;21127;-77
2022/01/26 04:23:41;;;;;;;93.62;42.70;;;;;;;-5.76;78.51;98553.47;1734568;81;21068;-77
2022/01/26 04:26:00;;;;;;;100.72;40.95;;;;;;;-5.75;78.39;98555.63;1731358;82;21060;-75
2022/01/26 04:28:39;;;;;;;104.97;43.92;;;;;;;-5.78;78.40;98562.83;1699557;82;21449;-75
2022/01/26 04:30:59;;;;;;;100.62;44.05;;;;;;;-5.74;78.64;98565.12;1720190;83;21025;-76
2022/01/26 04:33:26;;;;;;;93.62;43.15;;;;;;;-5.73;79.02;98561.33;1767769;81;21076;-76
2022/01/26 04:35:53;;;;;;;90.47;42.62;;;;;;;-5.69;79.27;98566.25;1749159;82;21032;-76
2022/01/26 04:38:35;;;;;;;88.47;41.65;;;;;;;-5.67;79.14;98569.77;1749476;82;21478;-76
2022/01/26 04:43:22;;;;;;;97.85;43.25;;;;;;;-5.72;78.60;98563.52;1701314;81;20994;-75
2022/01/26 04:45:45;;;;;;;99.05;42.73;;;;;;;-5.73;78.77;98566.92;1753786;80;21013;-77
2022/01/26 04:48:12;;;;;;;92.82;43.42;;;;;;;-5.68;78.74;98563.23;1731437;82;21419;-77
2022/01/26 04:50:38;;;;;;;97.88;40.92;;;;;;;-5.68;79.22;98562.84;1684863;85;21024;-77
2022/01/26 04:53:05;;;;;;;97.35;43.55;;;;;;;-5.65;78.66;98567.27;1684959;85;21088;-77
2022/01/26 04:55:31;;;;;;;97.67;42.58;;;;;;;-5.64;78.93;98566.44;1684854;85;21020;-76
2022/01/26 04:57:58;;;;;;;84.20;40.63;;;;;;;-5.61;78.67;98564.00;1687076;83;21402;-76
2022/01/26 05:00:24;;;;;;;95.80;43.20;;;;;;;-5.66;78.54;98562.92;1775178;81;21270;-76
2022/01/26 05:02:51;;;;;;;99.77;43.05;;;;;;;-5.68;78.62;98571.88;1774935;81;21027;-76
2022/01/26 05:05:17;;;;;;;97.85;42.58;;;;;;;-5.73;78.53;98570.38;1775092;80;21000;-76
2022/01/26 05:07:44;;;;;;;101.27;44.85;;;;;;;-5.76;78.72;98568.97;1774856;81;21028;-77
2022/01/26 05:10:10;;;;;;;99.97;44.48;;;;;;;-5.80;78.67;98567.05;1775322;81;20977;-77
2022/01/26 05:12:38;;;;;;;97.40;44.13;;;;;;;-5.79;78.91;98561.46;1775037;80;21036;-77
2022/01/26 05:15:05;;;;;;;93.52;43.05;;;;;;;-5.74;79.05;98559.58;1774977;81;21004;-77
2022/01/26 05:17:31;;;;;;;100.70;44.30;;;;;;;-5.68;78.83;98559.37;1752177;81;21003;-77
2022/01/26 05:20:00;;;;;;;95.10;45.52;;;;;;;-5.63;78.93;98564.33;1749315;82;21013;-77
2022/01/26 05:22:27;;;;;;;94.65;41.00;;;;;;;-5.58;78.69;98558.56;1746298;81;21044;-75
2022/01/26 05:24:53;;;;;;;92.78;41.35;;;;;;;-5.63;78.56;98557.47;1745266;81;21057;-75
2022/01/26 05:27:20;;;;;;;94.30;42.03;;;;;;;-5.62;78.45;98553.17;1719823;82;20988;-76
2022/01/26 05:29:46;;;;;;;100.33;44.08;;;;;;;-5.62;78.54;98552.78;1719425;83;21454;-76
2022/01/26 05:32:13;;;;;;;88.62;42.98;;;;;;;-5.56;78.76;98549.16;1751979;81;20958;-77
2022/01/26 05:34:39;;;;;;;97.75;44.18;;;;;;;-5.51;78.69;98547.19;1749368;81;21400;-76
2022/01/26 05:37:06;;;;;;;97.72;43.87;;;;;;;-5.53;78.86;98551.00;1735647;82;20981;-76
2022/01/26 05:39:33;;;;;;;100.65;44.15;;;;;;;-5.48;78.84;98547.34;1738398;81;21008;-76
2022/01/26 05:42:04;;;;;;;100.33;45.25;;;;;;;-5.47;78.49;98547.41;1738432;82;21052;-76
2022/01/26 05:44:31;;;;;;;99.20;43.65;;;;;;;-5.49;78.44;98547.73;1738745;82;21434;-77
2022/01/26 05:46:58;;;;;;;101.12;44.98;;;;;;;-5.49;78.56;98554.19;1747486;81;20985;-76
2022/01/26 05:49:25;;;;;;;103.90;44.83;;;;;;;-5.50;78.59;98551.53;1749230;82;21009;-76
2022/01/26 05:51:53;;;;;;;101.45;46.40;;;;;;;-5.46;79.34;98553.05;1749382;81;20962;-76
2022/01/26 05:54:20;;;;;;;98.78;44.70;;;;;;;-5.39;79.15;98553.30;1749394;81;20998;-76
2022/01/26 05:56:47;;;;;;;95.80;45.00;;;;;;;-5.39;79.01;98550.72;1749484;82;21014;-76
2022/01/26 05:59:20;;;;;;;108.95;46.18;;;;;;;-5.33;79.12;98554.45;1749327;82;20997;-76
2022/01/26 06:01:51;;;;;;;97.12;44.65;;;;;;;-5.30;79.05;98550.72;1759542;81;21446;-76
2022/01/26 06:04:19;;;;;;;97.92;44.13;;;;;;;-5.30;78.76;98557.57;1742862;81;21053;-75
2022/01/26 06:06:45;;;;;;;95.00;43.28;;;;;;;-5.26;78.85;98557.28;1747385;81;21013;-75
2022/01/26 06:09:12;;;;;;;96.53;44.75;;;;;;;-5.30;78.73;98548.13;1749326;82;21029;-75
2022/01/26 06:11:38;;;;;;;102.02;45.33;;;;;;;-5.28;78.90;98546.02;1751246;81;21449;-77
2022/01/26 06:14:05;;;;;;;95.80;44.95;;;;;;;-5.25;78.75;98543.14;1746967;81;21005;-76
2022/01/26 06:16:32;;;;;;;101.50;44.80;;;;;;;-5.24;78.74;98547.48;1749441;81;21040;-76
2022/01/26 06:18:59;;;;;;;100.80;45.45;;;;;;;-5.23;78.96;98545.80;1761688;80;21004;-77
2022/01/26 06:21:25;;;;;;;101.85;45.45;;;;;;;-5.21;78.74;98546.34;1761572;80;20965;-78
2022/01/26 06:23:52;;;;;;;95.15;43.73;;;;;;;-5.22;78.94;98553.63;1769762;81;21056;-76
2022/01/26 06:26:18;;;;;;;98.10;45.45;;;;;;;-5.19;78.94;98546.41;1769681;81;21395;-76
2022/01/26 06:28:45;;;;;;;103.95;46.70;;;;;;;-5.22;78.77;98556.20;1769803;81;20997;-76
2022/01/26 06:31:15;;;;;;;107.72;46.75;;;;;;;-5.20;78.80;98560.13;1761124;81;21044;-76
2022/01/26 06:33:44;;;;;;;112.17;48.40;;;;;;;-5.12;79.45;98561.34;1769652;81;21057;-76
2022/01/26 06:36:14;;;;;;;110.12;49.03;;;;;;;-5.10;79.00;98556.23;1742539;81;20990;-77
2022/01/26 06:38:43;;;;;;;104.83;46.63;;;;;;;-5.06;78.91;98556.41;1682675;84;21012;-76
2022/01/26 06:41:10;;;;;;;106.92;47.70;;;;;;;-5.04;78.95;98555.19;1748612;81;21126;-77
2022/01/26 06:43:47;;;;;;;107.87;49.30;;;;;;;-5.03;79.20;98558.24;1741299;81;20997;-76
2022/01/26 06:46:08;;;;;;;105.07;48.02;;;;;;;-5.00;79.07;98561.36;1745309;81;21008;-77
2022/01/26 06:51:11;;;;;;;;;;;;;;;-5.00;78.85;98555.80;1727820;81;22099;-76
2022/01/26 06:53:37;;;;;;;111.20;46.88;;;;;;;-5.05;79.01;98551.74;1754745;81;20444;-78
2022/01/26 06:56:04;;;;;;;118.05;48.80;;;;;;;-5.05;78.89;98552.14;1691564;84;21427;-77
2022/01/26 06:58:30;;;;;;;106.55;48.00;;;;;;;-5.04;79.03;98546.14;1707924;83;21054;-75
2022/01/26 07:00:57;;;;;;;112.72;48.50;;;;;;;-4.97;79.33;98545.59;1699217;83;21038;-77
2022/01/26 07:03:25;;;;;;;111.42;48.55;;;;;;;-4.91;78.99;98544.94;1701871;84;21040;-75
2022/01/26 07:05:51;;;;;;;108.35;49.98;;;;;;;-4.92;79.39;98549.65;1703261;84;21044;-75
2022/01/26 07:08:20;;;;;;;110.78;50.08;;;;;;;-4.88;78.97;98545.08;1699645;84;21081;-75
2022/01/26 07:10:49;;;;;;;114.22;52.17;;;;;;;-4.86;79.33;98544.72;1696257;84;21025;-75
2022/01/26 07:13:15;;;;;;;111.12;48.95;;;;;;;-4.83;79.21;98548.73;1700544;84;21489;-76
2022/01/26 07:21:27;;;;;;;109.12;51.00;;;;;;;-4.78;79.28;98550.20;1698096;83;20997;-78
2022/01/26 07:23:57;;;;;;;114.42;50.90;;;;;;;-4.73;78.80;98556.87;1698955;84;20963;-74
2022/01/26 07:26:27;;;;;;;118.00;51.73;;;;;;;-4.79;78.39;98548.44;1700231;84;21006;-75
2022/01/26 07:28:53;;;;;;;103.45;49.35;;;;;;;-4.79;78.87;98556.20;1699049;84;20994;-77
2022/01/26 07:31:19;;;;;;;115.97;50.70;;;;;;;-4.70;78.68;98558.30;1700098;84;21005;-79
2022/01/26 07:33:46;;;;;;;107.30;47.15;;;;;;;-4.72;78.53;98555.64;1702067;84;21013;-77
2022/01/26 07:36:12;;;;;;;111.90;50.52;;;;;;;-4.71;78.55;98562.58;1716325;82;21405;-76
2022/01/26 07:38:39;;;;;;;107.90;47.95;;;;;;;-4.67;78.54;98563.17;1717130;83;21001;-77
2022/01/26 07:41:05;;;;;;;104.92;47.40;;;;;;;-4.67;79.01;98561.88;1714512;83;21023;-77
2022/01/26 07:43:32;;;;;;;103.65;47.45;;;;;;;-4.61;78.77;98557.34;1714090;82;21425;-79
2022/01/26 07:45:58;;;;;;;112.90;47.55;;;;;;;-4.53;78.86;98560.27;1710202;82;20995;-75
2022/01/26 07:48:25;;;;;;;107.83;44.77;;;;;;;-4.52;79.01;98552.97;1712620;83;21046;-75
2022/01/26 07:50:54;;;;;;;99.95;45.75;;;;;;;-4.45;78.69;98562.73;1714101;83;21387;-76
2022/01/26 07:53:21;;;;;;;91.40;39.25;;;;;;;-4.42;78.41;98562.86;1709963;83;21004;-77
2022/01/26 07:55:49;;;;;;;83.90;38.30;;;;;;;-4.42;78.34;98558.08;1712322;82;21014;-78
2022/01/26 07:58:17;;;;;;;83.65;36.68;;;;;;;-4.37;78.01;98555.26;1710621;84;21013;-79
2022/01/26 08:00:43;;;;;;;83.78;37.15;;;;;;;-4.33;78.18;98557.58;1712024;83;21001;-77
2022/01/26 08:03:10;;;;;;;87.25;39.92;;;;;;;-4.29;78.00;98554.27;1713147;83;20979;-81
2022/01/26 08:05:37;;;;;;;103.30;45.45;;;;;;;-4.26;77.87;98553.09;1715559;82;21031;-77
2022/01/26 08:08:09;;;;;;;97.80;44.05;;;;;;;-4.28;77.96;98554.33;1711715;82;21028;-78
2022/01/26 08:10:32;;;;;;;91.22;41.25;;;;;;;-4.32;77.81;98545.11;1710721;82;21034;-79
2022/01/26 08:12:59;;;;;;;85.12;39.03;;;;;;;-4.34;77.86;98551.91;1711326;82;21005;-77
2022/01/26 08:15:27;;;;;;;91.35;38.58;;;;;;;-4.34;77.92;98556.69;1710317;84;21135;-77
2022/01/26 08:17:55;;;;;;;84.07;38.70;;;;;;;-4.34;77.89;98559.27;1710086;83;20985;-77
2022/01/26 08:20:22;;;;;;;86.70;37.67;;;;;;;-4.27;77.79;98550.05;1707827;84;21048;-77
2022/01/26 08:22:51;;;;;;;90.00;37.38;;;;;;;-4.28;77.49;98554.33;1711227;84;20960;-78
2022/01/26 08:25:20;;;;;;;82.42;36.93;;;;;;;-4.37;77.71;98553.56;1709660;84;20995;-78
2022/01/26 08:27:53;;;;;;;89.13;41.60;;;;;;;-4.38;77.59;98553.10;1712270;82;20999;-76
2022/01/26 08:30:18;;;;;;;86.20;38.28;;;;;;;-4.34;78.07;98559.67;1709112;83;21326;-76
2022/01/26 08:32:44;;;;;;;81.05;37.55;;;;;;;-4.28;77.80;98562.52;1718649;83;21187;-76
2022/01/26 08:35:11;;;;;;;86.67;38.08;;;;;;;-4.26;77.61;98555.69;1725964;83;21447;-76
2022/01/26 08:37:38;;;;;;;84.35;39.92;;;;;;;-4.26;77.68;98562.16;1726317;83;20989;-75
2022/01/26 08:40:07;;;;;;;86.45;38.60;;;;;;;-4.19;77.79;98560.69;1726185;83;21425;-76
2022/01/26 08:42:33;;;;;;;78.35;36.77;;;;;;;-4.11;77.71;98552.39;1726141;83;21009;-77
2022/01/26 08:45:00;;;;;;;88.42;39.35;;;;;;;-4.02;77.46;98566.08;1726174;82;21453;-77
2022/01/26 08:47:27;;;;;;;89.90;37.53;;;;;;;-3.98;77.41;98553.72;1725905;83;21504;-77
2022/01/26 08:49:53;;;;;;;85.62;39.23;;;;;;;-3.90;77.38;98564.37;1722129;83;20989;-74
2022/01/26 08:52:20;;;;;;;89.35;38.75;;;;;;;-3.84;77.06;98563.72;1726026;83;21059;-77
2022/01/26 08:54:46;;;;;;;85.22;38.50;;;;;;;-3.81;76.80;98565.55;1726151;83;20976;-74
2022/01/26 08:57:13;;;;;;;90.72;39.88;;;;;;;-3.83;76.83;98565.48;1726116;83;20977;-75
2022/01/26 08:59:40;;;;;;;88.45;37.48;;;;;;;-3.82;76.97;98563.78;1726671;82;21017;-76
2022/01/26 09:02:08;;;;;;;85.28;37.78;;;;;;;-3.82;76.93;98561.20;1726240;83;20940;-76
2022/01/26 09:04:37;;;;;;;90.75;40.73;;;;;;;-3.79;77.25;98554.41;1721808;83;21468;-76
2022/01/26 09:07:04;;;;;;;86.02;38.98;;;;;;;-3.70;77.30;98557.74;1725140;83;20965;-82
2022/01/26 09:09:41;;;;;;;87.08;40.88;;;;;;;-3.63;77.23;98567.92;1731897;82;21029;-75
2022/01/26 09:12:06;;;;;;;95.70;41.48;;;;;;;-3.60;76.90;98558.58;1747163;82;21028;-75
2022/01/26 09:14:29;;;;;;;100.50;43.17;;;;;;;-3.60;76.83;98554.69;1730378;82;21033;-76
2022/01/26 09:16:56;;;;;;;95.45;41.92;;;;;;;-3.56;76.74;98549.59;1718958;82;20985;-76
2022/01/26 09:19:29;;;;;;;95.97;43.75;;;;;;;-3.51;76.91;98558.41;1717011;83;21497;-76
2022/01/26 09:22:02;;;;;;;90.32;44.10;;;;;;;-3.47;76.83;98561.19;1718798;82;21015;-76
2022/01/26 09:24:31;;;;;;;95.72;43.15;;;;;;;-3.42;76.60;98561.34;1719268;83;20964;-77
2022/01/26 09:26:58;;;;;;;90.72;42.67;;;;;;;-3.42;76.59;98569.11;1731322;82;21436;-76
2022/01/26 09:29:26;;;;;;;96.90;43.95;;;;;;;-3.37;76.64;98562.38;1697593;84;21074;-76
2022/01/26 09:31:55;;;;;;;82.78;39.53;;;;;;;-3.30;76.75;98567.37;1716476;83;21099;-74
2022/01/26 09:34:25;;;;;;;89.52;41.40;;;;;;;-3.23;76.63;98555.50;1725311;83;21136;-76
2022/01/26 09:36:52;;;;;;;91.87;41.48;;;;;;;-3.14;76.39;98555.83;1701394;83;21074;-75
2022/01/26 09:39:22;;;;;;;87.60;39.90;;;;;;;-3.10;76.02;98555.11;1670602;85;21076;-76
2022/01/26 09:41:51;;;;;;;97.50;41.70;;;;;;;-3.04;76.21;98553.11;1713779;81;21774;-75
2022/01/26 09:44:19;;;;;;;91.15;43.05;;;;;;;-3.04;75.83;98554.41;1728135;81;21012;-75
2022/01/26 09:46:47;;;;;;;96.72;41.08;;;;;;;-2.97;75.86;98541.23;1736235;82;21071;-76
2022/01/26 09:49:18;;;;;;;88.00;42.58;;;;;;;-2.92;75.81;98538.37;1731211;81;21023;-75
2022/01/26 09:51:49;;;;;;;91.05;40.23;;;;;;;-2.77;75.87;98536.72;1728036;81;21000;-76
2022/01/26 09:54:19;;;;;;;87.85;39.67;;;;;;;-2.71;75.69;98536.02;1733505;81;21095;-77
2022/01/26 09:56:52;;;;;;;85.85;39.65;;;;;;;-2.67;75.64;98540.08;1734968;81;21031;-77
2022/01/26 09:59:19;;;;;;;87.22;40.28;;;;;;;-2.66;75.21;98541.83;1741644;82;20964;-77
2022/01/26 10:01:50;;;;;;;93.97;42.27;;;;;;;-2.69;75.11;98544.75;1729871;81;21083;-77
2022/01/26 10:04:39;;;;;;;91.02;41.88;;;;;;;-2.70;75.30;98545.16;1714457;82;21094;-76
2022/01/26 10:07:21;;;;;;;85.97;40.10;;;;;;;-2.66;75.47;98550.91;1724504;82;21047;-76
2022/01/26 10:09:56;;;;;;;88.25;40.55;;;;;;;-2.65;75.39;98537.09;1711592;84;20988;-77
2022/01/26 10:17:46;;;;;;;86.95;41.88;;;;;;;-2.65;74.34;98548.77;1723910;82;21358;-75
2022/01/26 10:20:18;;;;;;;90.07;40.63;;;;;;;-2.62;75.06;98549.29;1712572;83;21028;-76
2022/01/26 10:22:44;;;;;;;95.45;40.75;;;;;;;-2.63;74.43;98546.67;1737764;81;20984;-75
2022/01/26 10:25:18;;;;;;;93.58;40.83;;;;;;;-2.74;74.57;98539.83;1741916;82;21012;-76
2022/01/26 10:27:50;;;;;;;85.35;38.60;;;;;;;-2.67;75.09;98544.37;1741744;81;21078;-75
2022/01/26 10:30:20;;;;;;;95.47;41.35;;;;;;;-2.59;75.32;98538.13;1742107;82;21062;-75
2022/01/26 10:32:47;;;;;;;83.40;40.08;;;;;;;-2.49;75.32;98542.77;1741788;81;21442;-74
2022/01/26 10:35:16;;;;;;;87.60;39.90;;;;;;;-2.45;74.77;98533.39;1755339;81;21021;-77
2022/01/26 10:37:58;;;;;;;84.83;39.20;;;;;;;-2.46;74.98;98521.25;1765017;81;21009;-75
2022/01/26 10:40:27;;;;;;;91.92;41.95;;;;;;;-2.47;74.51;98516.47;1774792;80;20981;-75
2022/01/26 10:43:08;;;;;;;90.70;41.88;;;;;;;-2.48;74.68;98516.41;1774494;81;21462;-74
2022/01/26 10:45:53;;;;;;;90.67;40.88;;;;;;;-2.54;74.36;98512.79;1763329;81;21317;-74
2022/01/26 10:48:31;;;;;;;87.72;40.17;;;;;;;-2.56;74.54;98514.87;1740352;81;21406;-74
2022/01/26 10:53:47;;;;;;;80.55;37.40;;;;;;;-2.50;74.80;98506.41;1737841;82;21453;-75
2022/01/26 10:56:11;;;;;;;83.37;38.42;;;;;;;-2.45;74.67;98510.02;1780022;80;21056;-75
2022/01/26 10:58:38;;;;;;;85.67;39.88;;;;;;;-2.49;74.53;98504.27;1747312;81;20957;-75
2022/01/26 11:01:05;;;;;;;87.80;39.60;;;;;;;-2.50;74.67;98505.97;1742449;82;20946;-74
2022/01/26 11:03:33;;;;;;;86.10;39.65;;;;;;;-2.47;74.69;98496.10;1751896;81;20957;-76
2022/01/26 11:06:07;;;;;;;86.35;40.20;;;;;;;-2.57;74.40;98497.55;1751610;81;21208;-76
2022/01/26 11:08:39;;;;;;;88.75;39.78;;;;;;;-2.60;74.75;98493.14;1753766;81;20973;-79
2022/01/26 11:11:06;;;;;;;83.22;38.10;;;;;;;-2.60;74.83;98496.14;1750936;81;21024;-75
2022/01/26 11:13:39;;;;;;;81.80;38.95;;;;;;;-2.57;74.85;98491.92;1740187;81;21001;-77
2022/01/26 11:16:15;;;;;;;80.75;38.23;;;;;;;-2.53;74.88;98489.89;1757039;81;21043;-76
2022/01/26 11:18:58;;;;;;;86.32;37.35;;;;;;;-2.47;75.01;98486.61;1743659;82;20981;-76
2022/01/26 11:21:35;;;;;;;81.92;39.42;;;;;;;-2.43;74.66;98484.58;1736570;81;21512;-75
2022/01/26 11:24:13;;;;;;;85.38;39.67;;;;;;;-2.40;74.73;98482.05;1743790;82;21032;-75
2022/01/26 11:26:42;;;;;;;81.92;39.70;;;;;;;-2.40;74.60;98487.69;1755140;81;20998;-76
2022/01/26 11:29:27;;;;;;;87.62;40.20;;;;;;;-2.34;74.90;98487.86;1761008;81;21406;-76
2022/01/26 11:32:10;;;;;;;83.35;39.85;;;;;;;-2.35;74.42;98485.21;1755139;81;21033;-77
2022/01/26 11:34:36;;;;;;;84.92;39.53;;;;;;;-2.36;74.62;98473.97;1758632;81;21033;-77
2022/01/26 11:37:09;;;;;;;90.07;40.65;;;;;;;-2.30;74.68;98477.14;1761338;81;21462;-76
2022/01/26 11:45:05;;;;;;;101.05;46.45;;;;;;;-2.23;74.63;98467.41;1757353;81;21057;-75
2022/01/26 11:45:10;;;;;;;106.17;46.28;;;;;;;-2.21;74.41;98466.17;1759255;80;21025;-75
2022/01/26 11:47:45;;;;;;;118.85;53.30;;;;;;;-2.24;74.68;98464.77;1756654;81;21055;-77
2022/01/26 11:50:21;;;;;;;122.22;55.88;;;;;;;-2.19;75.30;98457.59;1763529;81;21478;-75
2022/01/26 11:53:07;;;;;;;136.65;58.85;;;;;;;-2.18;75.25;98464.53;1757123;81;20977;-75
2022/01/26 11:55:48;;;;;;;121.17;58.02;;;;;;;-2.14;75.35;98461.59;1759110;81;20997;-76
2022/01/26 11:58:30;;;;;;;138.45;59.85;;;;;;;-2.12;74.95;98456.02;1760140;81;21013;-74
2022/01/26 12:01:14;;;;;;;130.75;57.62;;;;;;;-2.13;74.83;98465.95;1752600;81;20998;-75
2022/01/26 12:03:44;;;;;;;124.70;55.55;;;;;;;-2.14;75.22;98452.10;1742781;82;21028;-76
2022/01/26 12:06:13;;;;;;;118.55;56.68;;;;;;;-2.06;75.07;98457.92;1740049;82;21053;-76
2022/01/26 12:08:38;;;;;;;135.48;59.05;;;;;;;-2.02;75.10;98460.67;1754643;81;21065;-77
2022/01/26 12:11:12;;;;;;;140.18;64.42;;;;;;;-1.93;74.98;98456.55;1751764;80;21025;-78
2022/01/26 12:13:40;;;;;;;134.35;56.83;;;;;;;-1.95;74.62;98453.90;1748970;81;21056;-75
2022/01/26 12:16:24;;;;;;;127.27;58.55;;;;;;;-1.96;74.67;98449.55;1726783;82;21020;-77
2022/01/26 12:18:56;;;;;;;126.55;56.20;;;;;;;-1.92;74.59;98440.11;1683596;85;21100;-77
2022/01/26 12:32:59;;;;;;;113.88;49.95;;;;;;;-1.76;74.93;98425.83;1757147;80;21462;-77
2022/01/26 12:35:46;;;;;;;110.52;49.23;;;;;;;-1.90;74.94;98422.87;1739196;81;20982;-78
2022/01/26 12:37:57;;;;;;;107.22;48.95;;;;;;;-1.94;75.01;98416.72;1726351;81;21403;-78
2022/01/26 12:43:44;;;;;;;105.83;49.25;;;;;;;-1.86;74.97;98417.78;1749238;81;21009;-77
2022/01/26 12:46:15;;;;;;;103.35;46.73;;;;;;;-1.76;75.14;98415.43;1748390;81;20997;-76
2022/01/26 12:48:54;;;;;;;98.67;48.08;;;;;;;-1.70;75.19;98419.92;1738611;81;21044;-77
2022/01/26 12:51:22;;;;;;;109.20;49.80;;;;;;;-1.61;75.33;98426.66;1737774;82;21077;-76
2022/01/26 12:54:00;;;;;;;103.92;47.53;;;;;;;-1.53;75.15;98421.22;1746450;81;20989;-77
2022/01/26 12:56:38;;;;;;;99.67;45.55;;;;;;;-1.47;74.95;98419.21;1748136;82;21399;-78
2022/01/26 12:59:13;;;;;;;107.32;48.05;;;;;;;-1.43;74.96;98424.95;1761724;81;21013;-79
2022/01/26 13:01:41;;;;;;;93.12;44.95;;;;;;;-1.39;74.95;98424.59;1771547;81;21039;-74
2022/01/26 13:04:12;;;;;;;98.45;45.03;;;;;;;-1.37;74.66;98422.94;1774274;81;21043;-75
2022/01/26 13:06:52;;;;;;;97.88;45.48;;;;;;;-1.31;74.87;98420.48;1773878;81;21564;-75
2022/01/26 13:09:31;;;;;;;104.15;44.67;;;;;;;-1.28;74.78;98420.57;1773863;81;21036;-77
2022/01/26 13:12:00;;;;;;;96.37;44.23;;;;;;;-1.27;74.67;98427.52;1749451;81;20969;-76